createdAt,value
2023-02-11T00:01:21.388Z,101900.78
2023-02-11T00:06:24.564Z,101892.00
2023-02-11T00:11:30.779Z,101877.34
2023-02-11T00:16:33.608Z,101876.31
2023-02-11T00:21:36.433Z,101857.25
2023-02-11T00:26:40.495Z,101827.88
2023-02-11T00:31:43.445Z,101820.94
2023-02-11T00:36:46.238Z,101802.78
2023-02-11T00:41:52.180Z,101813.09
2023-02-11T00:46:54.912Z,101796.88
2023-02-11T00:51:57.706Z,101794.34
2023-02-11T00:57:01.753Z,101807.25
2023-02-11T01:02:04.655Z,101810.63
2023-02-11T01:07:07.367Z,101791.44
2023-02-11T01:12:11.482Z,101773.97
2023-02-11T01:17:16.926Z,101779.03
2023-02-11T01:22:19.692Z,101784.03
2023-02-11T01:27:24.754Z,101771.78
2023-02-11T01:32:27.593Z,101771.72
2023-02-11T01:37:30.390Z,101762.91
2023-02-11T01:42:34.868Z,101762.78
2023-02-11T01:47:37.555Z,101757.44
2023-02-11T01:52:41.027Z,101761.66
2023-02-11T01:57:47.692Z,101764.13
2023-02-11T02:02:55.677Z,101754.66
2023-02-11T02:08:05.161Z,101754.59
2023-02-11T02:13:09.292Z,101747.66
2023-02-11T02:18:23.359Z,101766.44
2023-02-11T02:23:39.040Z,101754.16
2023-02-11T02:29:03.904Z,101750.59
2023-02-11T02:34:11.059Z,101751.25
2023-02-11T02:39:17.671Z,101735.53
2023-02-11T02:44:21.381Z,101724.09
2023-02-11T02:49:25.480Z,101717.09
2023-02-11T02:54:45.667Z,101715.19
2023-02-11T02:59:55.169Z,101709.16
2023-02-11T03:05:04.505Z,101701.06
2023-02-11T03:10:09.511Z,101722.41
2023-02-11T03:15:13.342Z,101726.56
2023-02-11T03:20:18.964Z,101728.19
2023-02-11T03:25:22.001Z,101729.78
2023-02-11T03:30:28.389Z,101702.69
2023-02-11T03:35:34.382Z,101687.19
2023-02-11T03:40:39.920Z,101679.53
2023-02-11T03:45:42.739Z,101677.84
2023-02-11T03:50:47.881Z,101672.38
2023-02-11T03:55:52.131Z,101667.91
2023-02-11T04:00:54.968Z,101667.88
2023-02-11T04:05:59.055Z,101671.25
2023-02-11T04:11:01.795Z,101663.44
2023-02-11T04:16:08.848Z,101654.09
2023-02-11T04:21:12.958Z,101658.44
2023-02-11T04:26:15.933Z,101653.44
2023-02-11T04:31:18.767Z,101653.47
2023-02-11T04:36:22.900Z,101667.09
2023-02-11T04:41:25.743Z,101669.47
2023-02-11T04:46:28.526Z,101665.28
2023-02-11T04:51:32.653Z,101666.97
2023-02-11T04:56:35.522Z,101670.38
2023-02-11T05:01:38.433Z,101660.00
2023-02-11T05:06:42.581Z,101657.25
2023-02-11T05:11:45.501Z,101644.41
2023-02-11T05:16:48.337Z,101656.44
2023-02-11T05:22:02.116Z,101659.72
2023-02-11T05:27:05.946Z,101656.34
2023-02-11T05:32:09.086Z,101655.44
2023-02-11T05:37:13.201Z,101650.00
2023-02-11T05:42:16.146Z,101649.63
2023-02-11T05:47:18.868Z,101647.72
2023-02-11T05:52:23.312Z,101643.28
2023-02-11T05:57:26.005Z,101656.13
2023-02-11T06:02:28.971Z,101645.69
2023-02-11T06:07:33.085Z,101647.34
2023-02-11T06:12:36.935Z,101643.69
2023-02-11T06:17:39.615Z,101631.31
2023-02-11T06:22:43.717Z,101639.03
2023-02-11T06:27:46.488Z,101623.28
2023-02-11T06:32:49.357Z,101620.69
2023-02-11T06:37:54.158Z,101613.56
2023-02-11T06:42:57.069Z,101618.47
2023-02-11T06:47:59.768Z,101639.94
2023-02-11T06:53:03.860Z,101638.78
2023-02-11T06:58:06.554Z,101651.47
2023-02-11T07:03:09.397Z,101650.41
2023-02-11T07:08:13.523Z,101652.09
2023-02-11T07:13:16.365Z,101636.50
2023-02-11T07:18:19.370Z,101632.13
2023-02-11T07:23:23.434Z,101632.97
2023-02-11T07:28:26.266Z,101644.16
2023-02-11T07:33:29.042Z,101649.94
2023-02-11T07:38:33.900Z,101648.88
2023-02-11T07:43:37.051Z,101644.34
2023-02-11T07:48:39.850Z,101640.50
2023-02-11T07:53:43.957Z,101643.94
2023-02-11T07:58:47.049Z,101659.50
2023-02-11T08:03:49.872Z,101652.44
2023-02-11T08:08:54.290Z,101642.47
2023-02-11T08:13:58.131Z,101640.06
2023-02-11T08:19:02.237Z,101638.22
2023-02-11T08:24:07.249Z,101637.47
2023-02-11T08:29:12.192Z,101643.50
2023-02-11T08:34:18.233Z,101652.22
2023-02-11T08:39:23.213Z,101651.16
2023-02-11T08:44:26.036Z,101634.88
2023-02-11T08:49:30.254Z,101646.56
2023-02-11T08:54:34.329Z,101658.50
2023-02-11T08:59:37.055Z,101644.72
2023-02-11T09:04:40.127Z,101640.78
2023-02-11T09:09:44.179Z,101666.81
2023-02-11T09:14:47.193Z,101651.44
2023-02-11T09:19:49.883Z,101659.44
2023-02-11T09:24:54.002Z,101697.00
2023-02-11T09:29:56.831Z,101701.47
2023-02-11T09:34:59.552Z,101698.00
2023-02-11T09:40:03.990Z,101701.97
2023-02-11T09:45:15.745Z,101721.19
2023-02-11T09:50:23.209Z,101695.16
2023-02-11T09:55:29.893Z,101694.06
2023-02-11T10:00:35.080Z,101703.75
2023-02-11T10:05:51.280Z,101696.16
2023-02-11T10:10:58.478Z,101680.38
2023-02-11T10:16:11.132Z,101676.47
2023-02-11T10:21:21.063Z,101673.44
2023-02-11T10:26:27.610Z,101678.47
2023-02-11T10:31:37.029Z,101666.13
2023-02-11T10:36:41.749Z,101642.63
2023-02-11T10:41:47.719Z,101646.66
2023-02-11T10:46:50.970Z,101664.91
2023-02-11T10:52:14.127Z,101689.16
2023-02-11T10:57:20.295Z,101692.00
2023-02-11T11:02:25.118Z,101672.31
2023-02-11T11:07:29.792Z,101674.19
2023-02-11T11:12:42.193Z,101673.31
2023-02-11T11:17:45.142Z,101659.13
2023-02-11T11:22:48.620Z,101663.91
2023-02-11T11:27:54.485Z,101655.16
2023-02-11T11:32:57.383Z,101656.00
2023-02-11T11:38:02.383Z,101651.81
2023-02-11T11:43:16.539Z,101662.13
2023-02-11T11:48:23.340Z,101677.63
2023-02-11T11:53:30.666Z,101682.50
2023-02-11T11:58:35.341Z,101670.28
2023-02-11T12:04:06.847Z,101673.53
2023-02-11T12:09:20.588Z,101664.78
2023-02-11T12:14:40.283Z,101653.59
2023-02-11T12:20:03.957Z,101676.81
2023-02-11T12:25:19.471Z,101681.94
2023-02-11T12:30:40.263Z,101670.75
2023-02-11T12:35:49.345Z,101666.19
2023-02-11T12:41:01.931Z,101660.72
2023-02-11T12:46:25.839Z,101665.09
2023-02-11T12:51:38.843Z,101639.75
2023-02-11T12:56:46.396Z,101652.63
2023-02-11T13:01:50.976Z,101654.31
2023-02-11T13:06:57.284Z,101641.16
2023-02-11T13:12:22.048Z,101640.31
2023-02-11T13:17:29.958Z,101641.44
2023-02-11T13:22:35.693Z,101628.50
2023-02-11T13:27:42.671Z,101639.56
2023-02-11T13:33:06.604Z,101644.03
2023-02-11T13:38:21.602Z,101652.91
2023-02-11T13:43:28.438Z,101651.09
2023-02-11T13:48:34.928Z,101660.63
2023-02-11T13:53:46.846Z,101653.72
2023-02-11T13:58:50.587Z,101651.22
2023-02-11T14:04:38.239Z,101647.69
2023-02-11T14:09:41.305Z,101650.19
2023-02-11T14:15:02.889Z,101667.63
2023-02-11T14:20:36.196Z,101663.41
2023-02-11T14:25:40.409Z,101649.25
2023-02-11T14:30:51.949Z,101650.28
2023-02-11T14:36:03.746Z,101653.81
2023-02-11T14:41:08.845Z,101649.53
2023-02-11T14:46:11.702Z,101655.56
2023-02-11T14:51:19.584Z,101655.75
2023-02-11T14:56:26.255Z,101648.03
2023-02-11T15:01:32.447Z,101656.69
2023-02-11T15:06:38.944Z,101647.00
2023-02-11T15:11:43.399Z,101644.31
2023-02-11T15:16:47.075Z,101656.22
2023-02-11T15:21:51.743Z,101664.06
2023-02-11T15:26:59.261Z,101682.16
2023-02-11T15:32:07.331Z,101675.19
2023-02-11T15:37:14.774Z,101679.47
2023-02-11T15:42:19.263Z,101690.72
2023-02-11T15:47:22.707Z,101695.19
2023-02-11T15:52:28.281Z,101695.19
2023-02-11T15:57:31.362Z,101685.88
2023-02-11T16:02:36.445Z,101688.56
2023-02-11T16:07:43.387Z,101677.38
2023-02-11T16:12:53.024Z,101687.81
2023-02-11T16:17:56.120Z,101698.25
2023-02-11T16:23:01.044Z,101694.88
2023-02-11T16:28:03.871Z,101701.94
2023-02-11T16:33:06.719Z,101706.53
2023-02-11T16:38:10.895Z,101720.66
2023-02-11T16:43:13.685Z,101726.25
2023-02-11T16:48:18.430Z,101732.47
2023-02-11T16:53:24.153Z,101742.16
2023-02-11T16:58:26.939Z,101742.16
2023-02-11T17:03:30.301Z,101740.53
2023-02-11T17:08:35.545Z,101758.81
2023-02-11T17:13:39.468Z,101758.75
2023-02-11T17:18:42.237Z,101758.47
2023-02-11T17:23:46.764Z,101761.75
2023-02-11T17:28:49.480Z,101755.59
2023-02-11T17:33:52.240Z,101757.44
2023-02-11T17:38:56.795Z,101776.06
2023-02-11T17:44:00.168Z,101767.88
2023-02-11T17:49:03.543Z,101771.59
2023-02-11T17:54:09.345Z,101772.09
2023-02-11T17:59:13.931Z,101779.59
2023-02-11T18:04:18.648Z,101787.56
2023-02-11T18:09:22.714Z,101790.34
2023-02-11T18:14:25.637Z,101804.44
2023-02-11T18:19:32.996Z,101801.31
2023-02-11T18:24:37.205Z,101812.47
2023-02-11T18:29:40.030Z,101815.28
2023-02-11T18:34:42.930Z,101823.56
2023-02-11T18:39:47.071Z,101821.97
2023-02-11T18:44:50.098Z,101832.38
2023-02-11T18:49:53.086Z,101829.16
2023-02-11T18:54:57.176Z,101836.16
2023-02-11T18:59:59.950Z,101849.94
2023-02-11T19:05:02.878Z,101842.81
2023-02-11T19:10:08.667Z,101840.03
2023-02-11T19:15:11.478Z,101844.34
2023-02-11T19:20:14.344Z,101846.94
2023-02-11T19:25:18.566Z,101848.84
2023-02-11T19:30:21.613Z,101859.88
2023-02-11T19:35:25.041Z,101865.94
2023-02-11T19:40:29.324Z,101883.31
2023-02-11T19:45:32.063Z,101901.47
2023-02-11T19:50:34.882Z,101892.66
2023-02-11T19:55:39.074Z,101905.53
2023-02-11T20:00:42.121Z,101907.28
2023-02-11T20:05:47.746Z,101909.84
2023-02-11T20:10:51.983Z,101908.97
2023-02-11T20:15:55.209Z,101914.09
2023-02-11T20:21:00.143Z,101922.78
2023-02-11T20:26:08.674Z,101925.28
2023-02-11T20:31:12.584Z,101935.66
2023-02-11T20:36:16.917Z,101939.84
2023-02-11T20:41:22.795Z,101917.41
2023-02-11T20:46:27.258Z,101920.06
2023-02-11T20:51:31.519Z,101923.44
2023-02-11T20:56:37.703Z,101922.53
2023-02-11T21:01:43.230Z,101926.91
2023-02-11T21:06:48.157Z,101947.75
2023-02-11T21:11:53.280Z,101964.84
2023-02-11T21:16:56.341Z,101964.75
2023-02-11T21:22:00.694Z,101974.00
2023-02-11T21:27:04.857Z,101969.81
2023-02-11T21:32:07.653Z,101980.16
2023-02-11T21:37:10.454Z,101993.25
2023-02-11T21:42:14.666Z,102007.31
2023-02-11T21:47:17.546Z,102008.13
2023-02-11T21:52:20.628Z,102007.16
2023-02-11T21:57:24.852Z,102013.28
2023-02-11T22:02:27.765Z,102009.81
2023-02-11T22:07:30.745Z,102014.34
2023-02-11T22:12:34.835Z,102024.44
2023-02-11T22:17:37.702Z,102019.31
2023-02-11T22:22:40.532Z,102020.09
2023-02-11T22:27:44.674Z,102022.72
2023-02-11T22:32:47.454Z,102035.75
2023-02-11T22:37:50.214Z,102031.06
2023-02-11T22:42:54.529Z,102048.25
2023-02-11T22:47:57.226Z,102037.81
2023-02-11T22:53:00.053Z,102045.63
2023-02-11T22:58:04.363Z,102058.56
2023-02-11T23:03:08.483Z,102065.34
2023-02-11T23:08:12.406Z,102068.72
2023-02-11T23:13:16.726Z,102076.38
2023-02-11T23:18:19.447Z,102071.94
2023-02-11T23:23:22.202Z,102072.91
2023-02-11T23:28:26.382Z,102085.19
2023-02-11T23:33:29.211Z,102088.56
2023-02-11T23:38:31.931Z,102088.41
2023-02-11T23:43:36.248Z,102077.31
2023-02-11T23:48:40.422Z,102081.66
2023-02-11T23:53:43.378Z,102093.00
2023-02-11T23:58:48.853Z,102092.84
